^^
B2 Weather Station Historical Data
Daily Summary for December 16, 2018 Units:  English    Metric   Both
Daily Weekly Monthly Yearly Custom
  High: Low: Average:
Temperature: 49.2 °F 26.4 °F 36.3 °F
Dew Point: 39.3 °F 24.9 °F 32.4 °F
Humidity: 95% 63% 86%
Wind Speed: 11.5mph 0mph 4.2mph
Wind Gust: 7.3mph - -
Wind- - WNW
Pressure: 30.16 in 30.08 in -
Precipitation: 0 in    
Historical Graphs
 
 
Tabular Data for December 16, 2018
Time Temperature Dew Point Pressure Wind Wind Speed Wind Gust Humidity Rainfall Rate (Hourly) solar
00:04 32.9 °F 31.4 °F 30.12 in North 3.5 mph 3.2 mph 94% 0 in 0.00 W/m2
00:09 32.9 °F 31.4 °F 30.12 in NW 6.9 mph 4.9 mph 94% 0 in 0.00 W/m2
00:14 33 °F 31.5 °F 30.12 in NNW 4.6 mph 4 mph 94% 0 in 0.00 W/m2
00:19 33.3 °F 31.8 °F 30.13 in WNW 5 mph 3.9 mph 94% 0 in 0.00 W/m2
00:24 33.2 °F 31.7 °F 30.13 in WNW 5 mph 4.1 mph 94% 0 in 0.00 W/m2
00:29 33.1 °F 31.6 °F 30.13 in WNW 5.8 mph 3.7 mph 94% 0 in 0.00 W/m2
00:34 33.1 °F 31.6 °F 30.13 in NNW 4.6 mph 2.8 mph 94% 0 in 0.00 W/m2
00:39 33 °F 31.2 °F 30.13 in NW 6.9 mph 2.1 mph 93% 0 in 0.00 W/m2
00:44 32.9 °F 31.4 °F 30.13 in NW 4.6 mph 3 mph 94% 0 in 0.00 W/m2
00:50 32.9 °F 31.4 °F 30.13 in NW 3.5 mph 2.7 mph 94% 0 in 0.00 W/m2
00:54 32.9 °F 31.4 °F 30.14 in NW 4.6 mph 3.7 mph 94% 0 in 0.00 W/m2
00:59 32.9 °F 31.1 °F 30.14 in WNW 5 mph 2.1 mph 93% 0 in 0.00 W/m2
01:04 32.8 °F 31 °F 30.14 in WNW 3.5 mph 2.3 mph 93% 0 in 0.00 W/m2
01:09 32.9 °F 31.4 °F 30.14 in NW 5.8 mph 2.6 mph 94% 0 in 0.00 W/m2
01:14 32.9 °F 31.4 °F 30.13 in NNW 5 mph 3.4 mph 94% 0 in 0.00 W/m2
01:20 32.7 °F 30.9 °F 30.13 in NNW 3.5 mph 2 mph 93% 0 in 0.00 W/m2
01:24 32.4 °F 30.6 °F 30.13 in NNW 3.5 mph 2.5 mph 93% 0 in 0.00 W/m2
01:29 32.2 °F 30.4 °F 30.13 in NW 3.5 mph 1.3 mph 93% 0 in 0.00 W/m2
01:35 32 °F 30.2 °F 30.12 in NNW 3.5 mph 2.7 mph 93% 0 in 0.00 W/m2
01:39 31.7 °F 29.9 °F 30.12 in NNW 3.5 mph 0.6 mph 93% 0 in 0.00 W/m2
01:44 31.3 °F 29.5 °F 30.13 in WNW 5 mph 2.4 mph 93% 0 in 0.00 W/m2
01:49 31.4 °F 29.9 °F 30.13 in NW 5.8 mph 2.2 mph 94% 0 in 0.00 W/m2
01:54 31.2 °F 29.7 °F 30.13 in NW 3.5 mph 2 mph 94% 0 in 0.00 W/m2
01:59 31.5 °F 30 °F 30.13 in NW 6.9 mph 4 mph 94% 0 in 0.00 W/m2
02:04 31.7 °F 30.2 °F 30.13 in NW 6 mph 3.2 mph 94% 0 in 0.00 W/m2
02:09 31.9 °F 30.4 °F 30.14 in WNW 4.6 mph 2.4 mph 94% 0 in 0.00 W/m2
02:14 31.9 °F 30.4 °F 30.14 in WNW 4.6 mph 2.4 mph 94% 0 in 0.00 W/m2
02:19 31.7 °F 30.2 °F 30.14 in WNW 4.6 mph 2.4 mph 94% 0 in 0.00 W/m2
02:24 31.6 °F 30.1 °F 30.14 in NW 3.5 mph 1.6 mph 94% 0 in 0.00 W/m2
02:29 31.5 °F 30 °F 30.14 in NW 4.6 mph 2.7 mph 94% 0 in 0.00 W/m2
02:34 31.5 °F 30 °F 30.14 in NW 3.5 mph 2.5 mph 94% 0 in 0.00 W/m2
02:39 31.6 °F 30.1 °F 30.14 in NW 5.8 mph 3.6 mph 94% 0 in 0.00 W/m2
02:44 31.6 °F 30.1 °F 30.14 in WNW 3.5 mph 1.6 mph 94% 0 in 0.00 W/m2
02:49 31.7 °F 30.2 °F 30.14 in WNW 5 mph 2.6 mph 94% 0 in 0.00 W/m2
02:54 31.7 °F 30.2 °F 30.14 in WNW 5.8 mph 2.7 mph 94% 0 in 0.00 W/m2
02:59 31.6 °F 30.1 °F 30.14 in NW 3.5 mph 2.8 mph 94% 0 in 0.00 W/m2
03:04 31.5 °F 30 °F 30.14 in WNW 3.5 mph 2.4 mph 94% 0 in 0.00 W/m2
03:10 31.4 °F 29.9 °F 30.14 in NW 4.6 mph 2.9 mph 94% 0 in 0.00 W/m2
03:14 31.5 °F 30 °F 30.14 in NW 4.6 mph 2.5 mph 94% 0 in 0.00 W/m2
03:19 31.6 °F 30.1 °F 30.14 in NW 5.8 mph 3.3 mph 94% 0 in 0.00 W/m2
03:24 31.6 °F 30.1 °F 30.14 in NW 3.5 mph 2.3 mph 94% 0 in 0.00 W/m2
03:29 31.6 °F 30.1 °F 30.15 in NW 3.5 mph 2.2 mph 94% 0 in 0.00 W/m2
03:34 31.4 °F 29.9 °F 30.15 in NW 3.5 mph 3.7 mph 94% 0 in 0.00 W/m2
03:39 31.2 °F 29.7 °F 30.15 in NW 3.5 mph 2 mph 94% 0 in 0.00 W/m2
03:44 31 °F 29.5 °F 30.15 in NW 3.5 mph 1.2 mph 94% 0 in 0.00 W/m2
03:49 30.7 °F 29.2 °F 30.15 in NW 4.6 mph 2.1 mph 94% 0 in 0.00 W/m2
03:54 30.5 °F 29 °F 30.15 in NW 3.5 mph 2.4 mph 94% 0 in 0.00 W/m2
03:59 30.2 °F 28.7 °F 30.15 in NW 6.9 mph 3.4 mph 94% 0 in 0.00 W/m2
04:04 30 °F 28.5 °F 30.15 in NW 3.5 mph 2.4 mph 94% 0 in 0.00 W/m2
04:09 29.8 °F 28.3 °F 30.15 in WNW 3.5 mph 1.8 mph 94% 0 in 0.00 W/m2
04:14 29.6 °F 28.1 °F 30.15 in NW 2.3 mph 0.8 mph 94% 0 in 0.00 W/m2
04:19 29.4 °F 27.9 °F 30.14 in WNW 1.2 mph   94% 0 in 0.00 W/m2
04:24 29.3 °F 27.8 °F 30.14 in Calm     94% 0 in 0.00 W/m2
04:29 29.2 °F 27.7 °F 30.14 in Calm     94% 0 in 0.00 W/m2
04:34 29.1 °F 27.6 °F 30.13 in Calm     94% 0 in 0.00 W/m2
04:39 28.9 °F 27.4 °F 30.13 in Calm     94% 0 in 0.00 W/m2
04:44 28.9 °F 27.4 °F 30.14 in Calm     94% 0 in 0.00 W/m2
04:49 28.8 °F 27.3 °F 30.14 in Calm     94% 0 in 0.00 W/m2
04:54 28.4 °F 26.9 °F 30.14 in Calm     94% 0 in 0.00 W/m2
04:59 28.4 °F 26.9 °F 30.14 in Calm     94% 0 in 0.00 W/m2
05:04 28.2 °F 26.7 °F 30.14 in WNW 1.2 mph 0.6 mph 94% 0 in 0.00 W/m2
05:09 28 °F 26.5 °F 30.14 in WNW 1.2 mph   94% 0 in 0.00 W/m2
05:14 27.9 °F 26.4 °F 30.14 in Calm     94% 0 in 0.00 W/m2
05:19 27.8 °F 26.3 °F 30.14 in Calm     94% 0 in 0.00 W/m2
05:24 27.6 °F 26.1 °F 30.14 in Calm     94% 0 in 0.00 W/m2
05:29 27.6 °F 26.1 °F 30.14 in Calm     94% 0 in 0.00 W/m2
05:34 27.5 °F 26 °F 30.14 in Calm     94% 0 in 0.00 W/m2
05:39 27.4 °F 25.9 °F 30.13 in Calm     94% 0 in 0.00 W/m2
05:44 27.3 °F 25.8 °F 30.14 in Calm     94% 0 in 0.00 W/m2
05:49 27.1 °F 25.6 °F 30.15 in WNW 2.3 mph 1.1 mph 94% 0 in 0.00 W/m2
05:54 27.1 °F 25.6 °F 30.15 in West 3.5 mph 1.6 mph 94% 0 in 0.00 W/m2
05:59 27.3 °F 25.8 °F 30.15 in West 3.5 mph 1.3 mph 94% 0 in 0.00 W/m2
06:04 27.4 °F 25.9 °F 30.15 in West 2.3 mph 0.8 mph 94% 0 in 0.00 W/m2
06:09 27.5 °F 26 °F 30.15 in Calm     94% 0 in 0.00 W/m2
06:14 27.5 °F 26 °F 30.15 in Calm   0.2 mph 94% 0 in 0.00 W/m2
06:19 27.6 °F 26.1 °F 30.15 in Calm     94% 0 in 0.00 W/m2
06:24 27.5 °F 26 °F 30.15 in Calm     94% 0 in 0.00 W/m2
06:29 27.5 °F 26 °F 30.15 in Calm     94% 0 in 0.00 W/m2
06:34 27.3 °F 25.8 °F 30.15 in Calm     94% 0 in 0.00 W/m2
06:39 27.2 °F 25.7 °F 30.14 in Calm     94% 0 in 0.00 W/m2
06:44 27 °F 25.5 °F 30.14 in Calm     94% 0 in 0.00 W/m2
06:49 26.9 °F 25.4 °F 30.14 in Calm     94% 0 in 0.00 W/m2
06:54 26.9 °F 25.4 °F 30.14 in Calm     94% 0 in 0.00 W/m2
06:59 26.9 °F 25.4 °F 30.14 in Calm     94% 0 in 0.00 W/m2
07:04 26.9 °F 25.4 °F 30.14 in Calm     94% 0 in 0.00 W/m2
07:09 26.8 °F 25.3 °F 30.14 in Calm     94% 0 in 0.00 W/m2
07:14 26.7 °F 25.2 °F 30.14 in Calm     94% 0 in 5.00 W/m2
07:19 26.6 °F 25.1 °F 30.14 in West 1 mph 0.5 mph 94% 0 in 7.00 W/m2
07:24 26.5 °F 25 °F 30.14 in West 1.2 mph 0.4 mph 94% 0 in 7.00 W/m2
07:29 26.5 °F 25 °F 30.14 in Calm     94% 0 in 16.00 W/m2
07:34 26.4 °F 24.9 °F 30.15 in Calm     94% 0 in 23.00 W/m2
07:39 26.5 °F 25 °F 30.15 in Calm     94% 0 in 35.00 W/m2
07:44 26.6 °F 25.1 °F 30.15 in West 2.3 mph 1.7 mph 94% 0 in 53.00 W/m2
07:49 26.9 °F 25.4 °F 30.15 in West 3.5 mph 0.6 mph 94% 0 in 72.00 W/m2
07:54 27.1 °F 25.6 °F 30.15 in WSW 1.2 mph 1.3 mph 94% 0 in 86.00 W/m2
07:59 27.3 °F 25.8 °F 30.15 in WSW 1.2 mph   94% 0 in 95.00 W/m2
08:04 27.6 °F 26.1 °F 30.15 in Calm     94% 0 in 49.00 W/m2
08:09 27.9 °F 26.7 °F 30.15 in Calm     95% 0 in 42.00 W/m2
08:14 28.1 °F 26.6 °F 30.15 in WSW 1 mph 0.5 mph 94% 0 in 32.00 W/m2
08:19 28.3 °F 26.8 °F 30.15 in Calm     94% 0 in 26.00 W/m2
08:24 28.4 °F 26.9 °F 30.15 in WSW 3.5 mph 0.2 mph 94% 0 in 62.00 W/m2
08:29 28.5 °F 27.3 °F 30.15 in Calm     95% 0 in 90.00 W/m2
08:34 28.8 °F 27.3 °F 30.15 in WSW 2.3 mph   94% 0 in 67.00 W/m2
08:39 28.9 °F 27.4 °F 30.15 in West 3 mph 0.9 mph 94% 0 in 104.00 W/m2
08:44 29 °F 27.5 °F 30.16 in West 3.5 mph 0.8 mph 94% 0 in 120.00 W/m2
08:49 28.9 °F 27.4 °F 30.16 in WSW 2.3 mph 0.6 mph 94% 0 in 118.00 W/m2
08:54 29 °F 27.7 °F 30.16 in WSW 1.2 mph   95% 0 in 139.00 W/m2
08:59 29.3 °F 28 °F 30.16 in WSW 2.3 mph 0.3 mph 95% 0 in 125.00 W/m2
09:04 29.5 °F 28 °F 30.16 in West 3.5 mph 1.1 mph 94% 0 in 156.00 W/m2
09:09 29.7 °F 28.4 °F 30.16 in WSW 3.5 mph 1.9 mph 95% 0 in 158.00 W/m2
09:14 29.9 °F 28.4 °F 30.16 in WSW 2 mph 1.7 mph 94% 0 in 156.00 W/m2
09:19 30.2 °F 28.9 °F 30.16 in WSW 2.3 mph 0.5 mph 95% 0 in 192.00 W/m2
09:24 30.6 °F 29.1 °F 30.16 in SW 3.5 mph 0.8 mph 94% 0 in 165.00 W/m2
09:29 31.1 °F 29.6 °F 30.16 in WSW 4 mph 2 mph 94% 0 in 158.00 W/m2
09:34 31.4 °F 30.1 °F 30.16 in WSW 3.5 mph 1 mph 95% 0 in 218.00 W/m2
09:39 31.6 °F 30.3 °F 30.16 in West 3.5 mph 0.4 mph 95% 0 in 179.00 W/m2
09:44 31.9 °F 30.6 °F 30.16 in West 1.2 mph 0.5 mph 95% 0 in 216.00 W/m2
09:49 32.3 °F 31 °F 30.16 in West 3.5 mph 0.2 mph 95% 0 in 213.00 W/m2
09:54 32.9 °F 31.4 °F 30.16 in Calm     94% 0 in 162.00 W/m2
09:59 33.6 °F 32.3 °F 30.16 in West 1.2 mph 0.3 mph 95% 0 in 294.00 W/m2
10:04 34.3 °F 33 °F 30.16 in WSW 2.3 mph 0.5 mph 95% 0 in 313.00 W/m2
10:09 35.1 °F 33.8 °F 30.15 in SW 3.5 mph 1.7 mph 95% 0 in 330.00 W/m2
10:14 35.7 °F 34.1 °F 30.15 in WSW 3.5 mph 1.3 mph 94% 0 in 338.00 W/m2
10:19 35.9 °F 34.3 °F 30.14 in SW 3.5 mph 3 mph 94% 0 in 345.00 W/m2
10:24 36.2 °F 34.9 °F 30.14 in WSW 4.6 mph 2.8 mph 95% 0 in 353.00 W/m2
10:29 36.4 °F 35.1 °F 30.14 in SSW 3.5 mph 2 mph 95% 0 in 359.00 W/m2
10:34 36.8 °F 35.5 °F 30.14 in West 3.5 mph 2.7 mph 95% 0 in 367.00 W/m2
10:39 37.3 °F 36 °F 30.14 in WSW 3.5 mph 2.7 mph 95% 0 in 369.00 W/m2
10:44 38.1 °F 36.8 °F 30.14 in SSE 2.3 mph 0.3 mph 95% 0 in 381.00 W/m2
10:49 38.9 °F 37.6 °F 30.14 in SW 2 mph 1.8 mph 95% 0 in 394.00 W/m2
10:54 39.5 °F 38.2 °F 30.13 in SW 3.5 mph 1.9 mph 95% 0 in 415.00 W/m2
10:59 40.2 °F 38.9 °F 30.13 in SW 3.5 mph 1.3 mph 95% 0 in 422.00 W/m2
11:04 40.8 °F 39.2 °F 30.12 in SSW 4.6 mph 1.6 mph 94% 0 in 432.00 W/m2
11:09 41.4 °F 39.3 °F 30.12 in SW 3.5 mph 2.8 mph 92% 0 in 434.00 W/m2
11:14 41.7 °F 39 °F 30.12 in WSW 5 mph 2.8 mph 90% 0 in 443.00 W/m2
11:19 42.3 °F 39 °F 30.12 in SW 3.5 mph 1.8 mph 88% 0 in 446.00 W/m2
11:24 42.8 °F 38.6 °F 30.12 in West 5.8 mph 4.4 mph 85% 0 in 446.00 W/m2
11:29 43.2 °F 37.8 °F 30.12 in WSW 9.2 mph 4.5 mph 81% 0 in 446.00 W/m2
11:34 43.7 °F 38.3 °F 30.12 in WSW 5 mph 5.3 mph 81% 0 in 450.00 W/m2
11:39 44.1 °F 38 °F 30.11 in SW 4 mph 3.5 mph 79% 0 in 452.00 W/m2
11:44 44.3 °F 36.9 °F 30.11 in North 9.2 mph 5.2 mph 75% 0 in 452.00 W/m2
11:49 44.5 °F 36.7 °F 30.11 in North 7 mph 5.1 mph 74% 0 in 452.00 W/m2
11:54 44.6 °F 36.5 °F 30.11 in North 6.9 mph 4.9 mph 73% 0 in 455.00 W/m2
11:59 44.8 °F 36.7 °F 30.11 in West 9.2 mph 4.3 mph 73% 0 in 455.00 W/m2
12:04 45 °F 37.2 °F 30.11 in SW 6.9 mph 2.5 mph 74% 0 in 457.00 W/m2
12:09 45.2 °F 37.1 °F 30.11 in North 11.5 mph 6.3 mph 73% 0 in 459.00 W/m2
12:14 45.2 °F 37.4 °F 30.11 in West 8.1 mph 3.9 mph 74% 0 in 480.00 W/m2
12:19 45.4 °F 37.6 °F 30.11 in North 8 mph 5.5 mph 74% 0 in 478.00 W/m2
12:24 45.6 °F 38.1 °F 30.11 in West 6.9 mph 3.3 mph 75% 0 in 425.00 W/m2
12:29 46 °F 38.2 °F 30.10 in West 3.5 mph 2.1 mph 74% 0 in 362.00 W/m2
12:34 45.9 °F 37.7 °F 30.10 in WNW 8.1 mph 5.2 mph 73% 0 in 316.00 W/m2
12:39 45.8 °F 38 °F 30.10 in North 8.1 mph 3.5 mph 74% 0 in 353.00 W/m2
12:44 46 °F 38.2 °F 30.10 in West 9.2 mph 4.9 mph 74% 0 in 255.00 W/m2
12:49 46 °F 38.2 °F 30.10 in WSW 5.8 mph 3.3 mph 74% 0 in 313.00 W/m2
12:54 46.3 °F 38.1 °F 30.10 in North 9.2 mph 4.5 mph 73% 0 in 404.00 W/m2
12:59 46.7 °F 37.4 °F 30.09 in West 8.1 mph 5.6 mph 70% 0 in 413.00 W/m2
13:04 47.1 °F 37.4 °F 30.09 in West 9.2 mph 1.8 mph 69% 0 in 427.00 W/m2
13:09 47.4 °F 36.6 °F 30.09 in SW 10.4 mph 7.3 mph 66% 0 in 302.00 W/m2
13:14 47.4 °F 36.6 °F 30.09 in West 8.1 mph 4.8 mph 66% 0 in 371.00 W/m2
13:19 47.7 °F 37.3 °F 30.09 in WSW 5 mph 5.3 mph 67% 0 in 399.00 W/m2
13:24 47.9 °F 37.8 °F 30.09 in West 4.6 mph 3 mph 68% 0 in 383.00 W/m2
13:29 48.1 °F 37.7 °F 30.08 in SSW 3.5 mph 2.7 mph 67% 0 in 367.00 W/m2
13:34 48.3 °F 37.8 °F 30.08 in West 5.8 mph 2.3 mph 67% 0 in 362.00 W/m2
13:39 48.5 °F 37.7 °F 30.08 in SW 6.9 mph 4.5 mph 66% 0 in 355.00 W/m2
13:44 48.6 °F 37.7 °F 30.08 in SW 8.1 mph 4.2 mph 66% 0 in 346.00 W/m2
13:49 48.8 °F 37.6 °F 30.08 in North 7 mph 6.1 mph 65% 0 in 338.00 W/m2
13:54 48.8 °F 37.6 °F 30.08 in WSW 5.8 mph 3.5 mph 65% 0 in 329.00 W/m2
13:59 48.8 °F 37.2 °F 30.08 in North 8.1 mph 5.4 mph 64% 0 in 318.00 W/m2
14:04 48.8 °F 36.8 °F 30.09 in WSW 10.4 mph 4.1 mph 63% 0 in 309.00 W/m2
14:09 49 °F 37.3 °F 30.09 in NW 5.8 mph 2 mph 64% 0 in 302.00 W/m2
14:14 49.2 °F 37.1 °F 30.09 in North 5.8 mph 4.2 mph 63% 0 in 295.00 W/m2
14:19 49.1 °F 37 °F 30.08 in WSW 9.2 mph 4.4 mph 63% 0 in 216.00 W/m2
14:24 48.9 °F 37.3 °F 30.09 in North 9.2 mph 5.9 mph 64% 0 in 276.00 W/m2
14:29 48.5 °F 36.9 °F 30.09 in WSW 6.9 mph 3.1 mph 64% 0 in 241.00 W/m2
14:34 48.2 °F 36.6 °F 30.09 in North 8.1 mph 6.3 mph 64% 0 in 74.00 W/m2
14:39 48 °F 36.8 °F 30.09 in WSW 6.9 mph 4.3 mph 65% 0 in 216.00 W/m2
14:44 48 °F 37.2 °F 30.09 in North 7 mph 6 mph 66% 0 in 220.00 W/m2
14:49 48 °F 36.8 °F 30.09 in North 8.1 mph 4.8 mph 65% 0 in 192.00 W/m2
14:54 48 °F 36.8 °F 30.09 in North 5.8 mph 5.1 mph 65% 0 in 183.00 W/m2
14:59 48.1 °F 37.3 °F 30.09 in WSW 5.8 mph 2.7 mph 66% 0 in 171.00 W/m2
15:04 48.2 °F 37 °F 30.09 in North 10.4 mph 3 mph 65% 0 in 153.00 W/m2
15:09 48.2 °F 37 °F 30.09 in North 6 mph 4.4 mph 65% 0 in 137.00 W/m2
15:14 48 °F 36.4 °F 30.09 in WSW 4.6 mph 2.1 mph 64% 0 in 120.00 W/m2
15:19 47.8 °F 37 °F 30.09 in West 6.9 mph 3.5 mph 66% 0 in 113.00 W/m2
15:24 47.4 °F 36.6 °F 30.09 in SW 8.1 mph 5 mph 66% 0 in 102.00 W/m2
15:29 46.9 °F 36.9 °F 30.10 in WSW 6.9 mph 4.1 mph 68% 0 in 47.00 W/m2
15:34 46.7 °F 37.1 °F 30.10 in WSW 6.9 mph 4.8 mph 69% 0 in 35.00 W/m2
15:39 46.4 °F 37.1 °F 30.10 in North 9.2 mph 4.6 mph 70% 0 in 30.00 W/m2
15:44 46.1 °F 37.2 °F 30.10 in North 5.8 mph 3.4 mph 71% 0 in 28.00 W/m2
15:48 45.9 °F 37.4 °F 30.10 in North 6.9 mph 3.3 mph 72% 0 in 26.00 W/m2
15:54 45.6 °F 37.1 °F 30.10 in WNW 5.8 mph 2.3 mph 72% 0 in 26.00 W/m2
15:59 45.3 °F 37.2 °F 30.10 in North 5.8 mph 4 mph 73% 0 in 26.00 W/m2
16:04 45.1 °F 37.3 °F 30.10 in North 4.6 mph 3.2 mph 74% 0 in 25.00 W/m2
16:09 44.8 °F 37.4 °F 30.10 in SW 5.8 mph 2.4 mph 75% 0 in 18.00 W/m2
16:14 44.5 °F 37.4 °F 30.11 in North 6.9 mph 2.5 mph 76% 0 in 9.00 W/m2
16:19 44.2 °F 37.1 °F 30.11 in West 4.6 mph 2.8 mph 76% 0 in 0.00 W/m2
16:24 43.8 °F 37.1 °F 30.11 in WNW 3.5 mph 0.9 mph 77% 0 in 0.00 W/m2
16:29 43.5 °F 37.1 °F 30.11 in WSW 4.6 mph 1.4 mph 78% 0 in 0.00 W/m2
16:34 43.3 °F 36.9 °F 30.11 in West 4.6 mph 1.4 mph 78% 0 in 0.00 W/m2
16:39 42.9 °F 36.5 °F 30.11 in West 3.5 mph 1.4 mph 78% 0 in 0.00 W/m2
16:44 42.6 °F 36.5 °F 30.11 in West 3.5 mph 2 mph 79% 0 in 0.00 W/m2
16:49 42.3 °F 36.3 °F 30.12 in North 4 mph 1.5 mph 79% 0 in 0.00 W/m2
16:54 42.2 °F 35.8 °F 30.11 in WSW 3.5 mph 0.3 mph 78% 0 in 0.00 W/m2
16:59 41.9 °F 35.2 °F 30.11 in WNW 3.5 mph 0.9 mph 77% 0 in 0.00 W/m2
17:04 41.6 °F 34.9 °F 30.12 in West 2.3 mph 1 mph 77% 0 in 0.00 W/m2
17:09 41.3 °F 35 °F 30.12 in West 2.3 mph 0.8 mph 78% 0 in 0.00 W/m2
17:14 41 °F 34.7 °F 30.12 in WNW 2.3 mph 0.6 mph 78% 0 in 0.00 W/m2
17:19 40.7 °F 34.4 °F 30.12 in West 3.5 mph 0.7 mph 78% 0 in 0.00 W/m2
17:24 40.4 °F 34.4 °F 30.12 in WNW 2.3 mph 0.7 mph 79% 0 in 0.00 W/m2
17:29 40.3 °F 34.3 °F 30.12 in West 2 mph 0.9 mph 79% 0 in 0.00 W/m2
17:34 40.1 °F 34.1 °F 30.12 in WNW 3.5 mph 1.2 mph 79% 0 in 0.00 W/m2
17:39 40 °F 34.3 °F 30.12 in North 2.3 mph 0.5 mph 80% 0 in 0.00 W/m2
17:44 39.9 °F 34.2 °F 30.12 in WSW 3 mph 2 mph 80% 0 in 0.00 W/m2
17:49 39.8 °F 34.1 °F 30.12 in WSW 1.2 mph 0.5 mph 80% 0 in 0.00 W/m2
17:54 39.7 °F 34.3 °F 30.13 in West 2.3 mph 1.1 mph 81% 0 in 0.00 W/m2
17:59 39.6 °F 34.2 °F 30.13 in North 3.5 mph 2.6 mph 81% 0 in 0.00 W/m2
18:04 39.7 °F 34.7 °F 30.13 in WSW 3.5 mph 1.3 mph 82% 0 in 0.00 W/m2
18:09 39.8 °F 34.8 °F 30.13 in North 3.5 mph 1.1 mph 82% 0 in 0.00 W/m2
18:14 39.7 °F 34.7 °F 30.13 in West 3.5 mph 0.9 mph 82% 0 in 0.00 W/m2
18:19 39.6 °F 34.6 °F 30.13 in WSW 3 mph 2.4 mph 82% 0 in 0.00 W/m2
18:24 39.4 °F 34.7 °F 30.13 in NW 3.5 mph 1.5 mph 83% 0 in 0.00 W/m2
18:29 39.4 °F 34.7 °F 30.14 in North 4.6 mph 2.4 mph 83% 0 in 0.00 W/m2
18:34 39.5 °F 34.8 °F 30.14 in WSW 5.8 mph 3.5 mph 83% 0 in 0.00 W/m2
18:39 39.5 °F 34.8 °F 30.14 in North 7 mph 4 mph 83% 0 in 0.00 W/m2
18:44 39.5 °F 35.1 °F 30.14 in WNW 6.9 mph 4.3 mph 84% 0 in 0.00 W/m2
18:49 39.5 °F 35.1 °F 30.14 in WNW 7 mph 3.7 mph 84% 0 in 0.00 W/m2
18:54 39.3 °F 34.9 °F 30.14 in North 4.6 mph 0.9 mph 84% 0 in 0.00 W/m2
18:59 39.1 °F 34.7 °F 30.14 in North 4.6 mph 4 mph 84% 0 in 0.00 W/m2
19:04 38.9 °F 34.5 °F 30.15 in North 4.6 mph 3.6 mph 84% 0 in 0.00 W/m2
19:09 38.8 °F 34.4 °F 30.14 in SW 3.5 mph 3.4 mph 84% 0 in 0.00 W/m2
19:14 38.7 °F 34.3 °F 30.15 in SW 3.5 mph 2.1 mph 84% 0 in 0.00 W/m2
19:19 38.4 °F 34.3 °F 30.15 in North 5.8 mph 1.9 mph 85% 0 in 0.00 W/m2
19:24 38.1 °F 34 °F 30.15 in WSW 3.5 mph 1.9 mph 85% 0 in 0.00 W/m2
19:29 37.9 °F 34.1 °F 30.15 in WSW 3.5 mph 1.9 mph 86% 0 in 0.00 W/m2
19:34 37.7 °F 33.9 °F 30.15 in West 3.5 mph 1.7 mph 86% 0 in 0.00 W/m2
19:39 37.7 °F 34.2 °F 30.15 in SW 5.8 mph 3.4 mph 87% 0 in 0.00 W/m2
19:44 37.6 °F 33.8 °F 30.14 in WSW 3.5 mph 2.5 mph 86% 0 in 0.00 W/m2
19:49 37.4 °F 33.9 °F 30.14 in WSW 5.8 mph 3 mph 87% 0 in 0.00 W/m2
19:54 37.3 °F 33.8 °F 30.14 in WSW 3.5 mph 1.5 mph 87% 0 in 0.00 W/m2
19:59 37.1 °F 33.6 °F 30.14 in North 4.6 mph 2.9 mph 87% 0 in 0.00 W/m2
20:04 37 °F 33.5 °F 30.14 in North 3.5 mph 1.9 mph 87% 0 in 0.00 W/m2
20:09 37 °F 33.8 °F 30.14 in North 4 mph 2.3 mph 88% 0 in 0.00 W/m2
20:14 36.9 °F 33.7 °F 30.15 in WSW 4.6 mph 1.4 mph 88% 0 in 0.00 W/m2
20:19 36.8 °F 33.6 °F 30.15 in WSW 5 mph 3.9 mph 88% 0 in 0.00 W/m2
20:24 36.5 °F 33.3 °F 30.14 in WSW 4.6 mph 1.7 mph 88% 0 in 0.00 W/m2
20:29 36.3 °F 33.1 °F 30.15 in North 3.5 mph 2.7 mph 88% 0 in 0.00 W/m2
20:34 36.2 °F 33.3 °F 30.15 in WSW 5.8 mph 3.4 mph 89% 0 in 0.00 W/m2
20:39 36.1 °F 33.2 °F 30.14 in WSW 4.6 mph 3.6 mph 89% 0 in 0.00 W/m2
20:44 36 °F 33.1 °F 30.14 in WSW 4.6 mph 1.9 mph 89% 0 in 0.00 W/m2
20:49 36 °F 33.1 °F 30.15 in West 4.6 mph 2.8 mph 89% 0 in 0.00 W/m2
20:54 36 °F 33.1 °F 30.14 in SW 5.8 mph 2.9 mph 89% 0 in 0.00 W/m2
20:59 35.9 °F 33 °F 30.15 in WSW 3.5 mph 2.3 mph 89% 0 in 0.00 W/m2
21:04 35.9 °F 33 °F 30.14 in North 4.6 mph 3.5 mph 89% 0 in 0.00 W/m2
21:09 35.8 °F 32.9 °F 30.14 in WSW 6.9 mph 3.2 mph 89% 0 in 0.00 W/m2
21:14 35.8 °F 32.9 °F 30.14 in SW 4.6 mph 3 mph 89% 0 in 0.00 W/m2
21:19 35.7 °F 32.8 °F 30.15 in West 4.6 mph 4.1 mph 89% 0 in 0.00 W/m2
21:24 35.8 °F 33.2 °F 30.15 in WSW 5.8 mph 2.7 mph 90% 0 in 0.00 W/m2
21:29 35.8 °F 32.9 °F 30.15 in WSW 4.6 mph 3.8 mph 89% 0 in 0.00 W/m2
21:34 35.8 °F 32.9 °F 30.15 in North 4 mph 3.6 mph 89% 0 in 0.00 W/m2
21:40 35.7 °F 32.8 °F 30.15 in North 5 mph 4.3 mph 89% 0 in 0.00 W/m2
21:44 35.7 °F 32.8 °F 30.14 in WSW 4.6 mph 4.2 mph 89% 0 in 0.00 W/m2
21:49 35.7 °F 32.8 °F 30.14 in North 5.8 mph 5 mph 89% 0 in 0.00 W/m2
21:54 35.6 °F 32.7 °F 30.13 in WSW 6.9 mph 3.3 mph 89% 0 in 0.00 W/m2
21:59 35.5 °F 32.6 °F 30.13 in SW 6.9 mph 3.2 mph 89% 0 in 0.00 W/m2
22:04 35.4 °F 32.5 °F 30.13 in WSW 3.5 mph 3.3 mph 89% 0 in 0.00 W/m2
22:09 35.3 °F 32.4 °F 30.13 in WNW 5.8 mph 2.2 mph 89% 0 in 0.00 W/m2
22:14 35.2 °F 32.3 °F 30.13 in North 3.5 mph 3.6 mph 89% 0 in 0.00 W/m2
22:19 35.2 °F 32.3 °F 30.12 in WSW 8.1 mph 5.7 mph 89% 0 in 0.00 W/m2
22:24 35.2 °F 32.3 °F 30.12 in WSW 6.9 mph 3.9 mph 89% 0 in 0.00 W/m2
22:29 35.1 °F 32.2 °F 30.12 in WSW 5.8 mph 4.1 mph 89% 0 in 0.00 W/m2
22:34 35.1 °F 32.2 °F 30.12 in WSW 5.8 mph 3.8 mph 89% 0 in 0.00 W/m2
22:39 35.2 °F 32.3 °F 30.13 in WNW 4.6 mph 2.6 mph 89% 0 in 0.00 W/m2
22:44 35.3 °F 32.4 °F 30.13 in West 8.1 mph 2.7 mph 89% 0 in 0.00 W/m2
22:49 35.4 °F 32.2 °F 30.13 in WSW 4.6 mph 2.7 mph 88% 0 in 0.00 W/m2
22:54 35.5 °F 32.3 °F 30.13 in WSW 3.5 mph 2.1 mph 88% 0 in 0.00 W/m2
22:59 35.5 °F 32.3 °F 30.13 in North 6 mph 3.1 mph 88% 0 in 0.00 W/m2
23:04 35.5 °F 32.3 °F 30.13 in North 7 mph 4.6 mph 88% 0 in 0.00 W/m2
23:09 35.6 °F 32.1 °F 30.13 in WSW 4.6 mph 3.5 mph 87% 0 in 0.00 W/m2
23:14 35.6 °F 32.1 °F 30.13 in West 11.5 mph 3.8 mph 87% 0 in 0.00 W/m2
23:19 35.5 °F 32 °F 30.13 in West 5.8 mph 3.8 mph 87% 0 in 0.00 W/m2
23:25 35.4 °F 31.9 °F 30.13 in WSW 6.9 mph 4.3 mph 87% 0 in 0.00 W/m2
23:29 35.2 °F 31.7 °F 30.12 in WSW 6.9 mph 4.6 mph 87% 0 in 0.00 W/m2
23:34 34.9 °F 31.4 °F 30.13 in North 3.5 mph 3.2 mph 87% 0 in 0.00 W/m2
23:39 34.8 °F 31.6 °F 30.13 in North 4.6 mph 4 mph 88% 0 in 0.00 W/m2
23:44 34.7 °F 31.5 °F 30.13 in WSW 4.6 mph 2.6 mph 88% 0 in 0.00 W/m2
23:49 34.6 °F 31.4 °F 30.13 in North 6.9 mph 4.3 mph 88% 0 in 0.00 W/m2
23:54 34.5 °F 31.6 °F 30.14 in North 5.8 mph 2.7 mph 89% 0 in 0.00 W/m2
23:59 34.4 °F 31.5 °F 30.13 in North 7 mph 4 mph 89% 0 in 0.00 W/m2
Bourbonnais, Illinois, USA
Compliments of Weather Underground - 4 mb